Time;durP1;ratioP1;P1;durP2;ratioP2;P2;SDS_P1;SDS_P2;PMS_P1;PMS_P2;Temp;Humidity;BMP_temperature;BMP_pressure;BME280_temperature;BME280_humidity;BME280_pressure;Samples;Min_cycle;Max_cycle;Signal;HPM_P1;HPM_P2
2021/03/24 00:00:52;;;;;;;2.53;1.13;;;;;;;;;;5021442;28;20070;-76
2021/03/24 00:03:17;;;;;;;2.63;1.20;;;;;;;;;;5015253;28;20037;-76
2021/03/24 00:05:50;;;;;;;2.00;1.10;;;;;;;;;;5015262;28;20552;-76
2021/03/24 00:08:16;;;;;;;2.03;1.20;;;;;;;;;;5009604;28;20044;-76
2021/03/24 00:10:41;;;;;;;2.50;1.17;;;;;;;;;;5038658;28;20033;-76
2021/03/24 00:13:07;;;;;;;3.23;1.30;;;;;;;;;;4999299;28;20607;-76
2021/03/24 00:15:32;;;;;;;1.73;1.13;;;;;;;;;;5006145;28;20037;-76
2021/03/24 00:17:58;;;;;;;2.43;1.30;;;;;;;;;;5012804;28;20036;-76
2021/03/24 00:20:27;;;;;;;1.87;1.10;;;;;;;;;;5029916;28;20119;-76
2021/03/24 00:22:53;;;;;;;2.10;1.00;;;;;;;;;;5038872;28;20507;-76
2021/03/24 00:25:18;;;;;;;2.30;1.23;;;;;;;;;;5038892;28;20125;-76
2021/03/24 00:27:45;;;;;;;1.93;0.93;;;;;;;;;;5033228;28;20068;-76
2021/03/24 00:30:11;;;;;;;1.83;1.00;;;;;;;;;;5018922;28;20037;-76
2021/03/24 00:32:36;;;;;;;2.80;1.30;;;;;;;;;;5002404;28;20388;-76
2021/03/24 00:35:03;;;;;;;2.80;1.13;;;;;;;;;;5021386;28;20040;-77
2021/03/24 00:37:28;;;;;;;;;;;;;;;;;;5035959;28;20033;-76
2021/03/24 00:39:54;;;;;;;2.17;1.00;;;;;;;;;;5035034;28;19920;-76
2021/03/24 00:42:19;;;;;;;2.13;1.00;;;;;;;;;;5034902;28;20041;-76
2021/03/24 00:44:44;;;;;;;1.97;1.20;;;;;;;;;;5036224;28;20092;-76
2021/03/24 00:47:10;;;;;;;2.13;1.10;;;;;;;;;;5006609;28;20067;-76
2021/03/24 00:49:35;;;;;;;2.17;1.10;;;;;;;;;;5021390;28;20155;-76
2021/03/24 00:52:00;;;;;;;2.17;1.20;;;;;;;;;;5027117;28;20065;-76
2021/03/24 00:54:26;;;;;;;2.87;1.30;;;;;;;;;;5036077;28;20468;-76
2021/03/24 00:56:51;;;;;;;1.50;0.97;;;;;;;;;;5002985;28;20046;-77
2021/03/24 00:59:16;;;;;;;2.70;1.07;;;;;;;;;;5056227;28;20126;-76
2021/03/24 01:01:42;;;;;;;1.80;1.00;;;;;;;;;;5046501;28;20091;-76
2021/03/24 01:04:07;;;;;;;2.10;1.10;;;;;;;;;;5044490;28;20049;-76
2021/03/24 01:06:33;;;;;;;2.40;1.20;;;;;;;;;;5021484;28;20079;-76
2021/03/24 01:08:58;;;;;;;2.03;1.20;;;;;;;;;;5037665;28;20411;-76
2021/03/24 01:11:24;;;;;;;2.37;1.27;;;;;;;;;;5053967;28;20128;-76
2021/03/24 01:13:49;;;;;;;2.83;1.40;;;;;;;;;;5054017;28;20395;-76
2021/03/24 01:16:14;;;;;;;2.10;1.00;;;;;;;;;;5021122;28;20119;-76
2021/03/24 01:18:40;;;;;;;2.03;1.00;;;;;;;;;;5054273;28;20446;-76
2021/03/24 01:21:05;;;;;;;1.83;1.00;;;;;;;;;;5036053;28;20131;-76
2021/03/24 01:23:30;;;;;;;2.33;1.20;;;;;;;;;;5019426;28;20119;-76
2021/03/24 01:25:56;;;;;;;2.77;1.30;;;;;;;;;;5037557;28;20399;-76
2021/03/24 01:28:26;;;;;;;2.23;1.03;;;;;;;;;;5020715;28;20116;-76
2021/03/24 01:30:55;;;;;;;2.58;1.20;;;;;;;;;;4984734;28;20420;-76
2021/03/24 01:33:21;;;;;;;2.63;1.17;;;;;;;;;;5021420;28;20045;-76
2021/03/24 01:35:46;;;;;;;2.20;1.20;;;;;;;;;;5020955;28;20154;-76
2021/03/24 01:38:11;;;;;;;2.03;0.90;;;;;;;;;;5055178;28;20032;-76
2021/03/24 01:40:39;;;;;;;1.97;1.03;;;;;;;;;;5049777;28;20071;-76
2021/03/24 01:43:06;;;;;;;2.10;1.05;;;;;;;;;;5017798;28;20037;-77
2021/03/24 01:45:32;;;;;;;2.90;1.00;;;;;;;;;;5037543;28;20098;-76
2021/03/24 01:47:59;;;;;;;1.63;1.00;;;;;;;;;;5054984;28;20483;-76
2021/03/24 01:50:27;;;;;;;2.85;1.17;;;;;;;;;;5000983;28;20091;-76
2021/03/24 01:52:53;;;;;;;2.05;1.10;;;;;;;;;;5001211;28;20040;-77
2021/03/24 01:55:18;;;;;;;2.33;1.00;;;;;;;;;;5005105;28;20064;-76
2021/03/24 01:57:46;;;;;;;2.63;1.10;;;;;;;;;;5020577;28;20091;-76
2021/03/24 02:00:21;;;;;;;2.58;1.30;;;;;;;;;;5035881;28;20029;-76
2021/03/24 02:02:46;;;;;;;1.65;1.05;;;;;;;;;;5002115;28;20044;-76
2021/03/24 02:05:12;;;;;;;1.97;1.00;;;;;;;;;;5000862;28;20057;-76
2021/03/24 02:07:54;;;;;;;2.70;1.10;;;;;;;;;;5005875;28;20029;-76
2021/03/24 02:10:33;;;;;;;1.40;0.90;;;;;;;;;;5018624;28;20444;-77
2021/03/24 02:13:03;;;;;;;2.33;1.10;;;;;;;;;;5000672;28;20037;-76
2021/03/24 02:15:34;;;;;;;2.60;1.20;;;;;;;;;;5000883;28;20037;-76
2021/03/24 02:17:59;;;;;;;2.08;1.17;;;;;;;;;;5000307;28;20037;-76
2021/03/24 02:20:26;;;;;;;2.03;1.13;;;;;;;;;;5003350;28;20041;-76
2021/03/24 02:22:58;;;;;;;;;;;;;;;;;;5025880;28;20046;-76
2021/03/24 02:25:32;;;;;;;1.27;0.90;;;;;;;;;;5033041;28;19914;-76
2021/03/24 02:27:59;;;;;;;2.42;1.20;;;;;;;;;;5015451;28;20040;-76
2021/03/24 02:30:30;;;;;;;1.73;1.10;;;;;;;;;;5018184;28;20040;-76
2021/03/24 02:32:57;;;;;;;2.78;1.27;;;;;;;;;;5000217;28;20043;-76
2021/03/24 02:35:29;;;;;;;2.60;1.20;;;;;;;;;;4983959;28;20030;-76
2021/03/24 02:37:55;;;;;;;2.35;1.20;;;;;;;;;;4984409;28;20172;-76
2021/03/24 02:40:21;;;;;;;2.13;1.20;;;;;;;;;;5000770;28;20033;-76
2021/03/24 02:42:47;;;;;;;1.80;1.10;;;;;;;;;;5019449;28;20412;-76
2021/03/24 02:45:14;;;;;;;2.67;1.17;;;;;;;;;;5019376;28;20454;-77
2021/03/24 02:47:41;;;;;;;1.83;0.93;;;;;;;;;;5036364;28;20033;-76
2021/03/24 02:50:07;;;;;;;2.05;1.17;;;;;;;;;;5000010;28;20021;-76
2021/03/24 02:52:32;;;;;;;2.03;1.10;;;;;;;;;;5018635;28;20047;-76
2021/03/24 02:54:58;;;;;;;2.03;1.00;;;;;;;;;;5017756;28;20407;-76
2021/03/24 02:57:23;;;;;;;3.77;1.40;;;;;;;;;;4999741;28;20037;-76
2021/03/24 02:59:51;;;;;;;2.47;1.30;;;;;;;;;;5016046;28;20025;-76
2021/03/24 03:02:17;;;;;;;2.10;1.10;;;;;;;;;;4999416;28;20033;-77
2021/03/24 03:04:51;;;;;;;;;;;;;;;;;;5036053;28;20055;-76
2021/03/24 03:07:21;;;;;;;2.00;1.00;;;;;;;;;;5032931;28;19920;-76
2021/03/24 03:09:51;;;;;;;2.10;1.10;;;;;;;;;;5016179;28;20207;-76
2021/03/24 03:12:20;;;;;;;2.55;1.23;;;;;;;;;;5015905;28;20036;-76
2021/03/24 03:14:48;;;;;;;2.70;1.02;;;;;;;;;;5053447;28;20033;-76
2021/03/24 03:17:18;;;;;;;1.35;0.90;;;;;;;;;;5051369;28;20037;-76
2021/03/24 03:19:49;;;;;;;2.25;1.05;;;;;;;;;;5015757;28;20057;-76
2021/03/24 03:22:18;;;;;;;1.80;0.95;;;;;;;;;;5015438;28;20029;-76
2021/03/24 03:25:11;;;;;;;2.35;1.08;;;;;;;;;;5003680;28;20415;-76
2021/03/24 03:27:37;;;;;;;2.55;1.30;;;;;;;;;;4993676;28;20041;-76
2021/03/24 03:30:06;;;;;;;2.03;1.00;;;;;;;;;;4983137;28;20091;-76
2021/03/24 03:32:31;;;;;;;1.52;0.90;;;;;;;;;;5017050;28;20033;-77
2021/03/24 03:34:59;;;;;;;1.37;0.90;;;;;;;;;;5000531;28;20037;-76
2021/03/24 03:37:25;;;;;;;1.80;1.05;;;;;;;;;;4999429;28;20039;-76
2021/03/24 03:39:50;;;;;;;1.53;1.00;;;;;;;;;;4990592;28;20124;-76
2021/03/24 03:42:16;;;;;;;2.10;1.10;;;;;;;;;;5002825;28;20029;-76
2021/03/24 03:44:41;;;;;;;2.33;1.07;;;;;;;;;;5000202;28;20112;-76
2021/03/24 03:47:09;;;;;;;2.20;1.10;;;;;;;;;;5035179;28;20040;-76
2021/03/24 03:49:35;;;;;;;1.75;0.95;;;;;;;;;;5019085;28;20120;-76
2021/03/24 03:52:30;;;;;;;2.20;1.10;;;;;;;;;;4989354;28;20033;-76
2021/03/24 03:55:22;;;;;;;2.00;0.90;;;;;;;;;;4995580;28;20048;-76
2021/03/24 03:57:53;;;;;;;2.13;0.93;;;;;;;;;;5052038;28;20033;-76
2021/03/24 04:00:37;;;;;;;2.20;1.20;;;;;;;;;;5010018;28;20067;-76
2021/03/24 04:03:09;;;;;;;1.77;1.00;;;;;;;;;;5022819;28;20029;-76
2021/03/24 04:05:49;;;;;;;1.98;1.00;;;;;;;;;;5023285;28;20025;-76
2021/03/24 04:08:22;;;;;;;1.77;0.95;;;;;;;;;;5023230;28;20041;-76
2021/03/24 04:10:50;;;;;;;1.77;1.00;;;;;;;;;;5022838;28;20095;-76
2021/03/24 04:13:15;;;;;;;2.20;1.10;;;;;;;;;;5038971;28;20403;-76
2021/03/24 04:15:41;;;;;;;2.17;1.00;;;;;;;;;;5035872;28;20032;-76
2021/03/24 04:18:09;;;;;;;1.80;1.07;;;;;;;;;;5038882;28;20499;-76
2021/03/24 04:20:35;;;;;;;2.00;1.10;;;;;;;;;;5020600;28;20029;-76
2021/03/24 04:23:01;;;;;;;1.87;0.90;;;;;;;;;;5027641;28;20032;-76
2021/03/24 04:25:42;;;;;;;2.13;1.05;;;;;;;;;;5042225;28;20135;-76
2021/03/24 04:28:09;;;;;;;1.67;1.05;;;;;;;;;;5043837;28;20040;-76
2021/03/24 04:30:39;;;;;;;1.13;0.88;;;;;;;;;;5022413;28;20094;-76
2021/03/24 04:33:05;;;;;;;1.65;0.90;;;;;;;;;;5038296;28;20125;-76
2021/03/24 04:35:30;;;;;;;1.90;1.00;;;;;;;;;;5038438;28;20041;-76
2021/03/24 04:37:56;;;;;;;1.83;0.93;;;;;;;;;;5036856;28;20611;-77
2021/03/24 04:40:52;;;;;;;1.70;1.08;;;;;;;;;;5004827;28;20439;-76
2021/03/24 04:43:22;;;;;;;1.52;0.90;;;;;;;;;;5023547;28;20037;-76
2021/03/24 04:46:04;;;;;;;2.63;1.10;;;;;;;;;;5002182;28;20041;-76
2021/03/24 04:48:47;;;;;;;2.25;1.20;;;;;;;;;;4986468;28;20053;-76
2021/03/24 04:51:22;;;;;;;1.80;1.00;;;;;;;;;;5027389;28;20029;-76
2021/03/24 04:53:52;;;;;;;2.53;0.93;;;;;;;;;;5023336;28;20032;-75
2021/03/24 04:56:18;;;;;;;2.20;0.98;;;;;;;;;;5035648;28;20039;-76
2021/03/24 04:58:54;;;;;;;2.03;1.03;;;;;;;;;;5006200;28;20116;-76
2021/03/24 05:01:30;;;;;;;1.87;1.20;;;;;;;;;;5020141;28;20485;-76
2021/03/24 05:04:02;;;;;;;1.73;0.93;;;;;;;;;;5017138;28;20053;-76
2021/03/24 05:06:38;;;;;;;2.10;1.02;;;;;;;;;;5002290;28;20047;-76
2021/03/24 05:09:07;;;;;;;2.00;0.93;;;;;;;;;;5018152;28;20412;-76
2021/03/24 05:11:39;;;;;;;2.92;1.20;;;;;;;;;;5039678;28;20034;-76
2021/03/24 05:14:19;;;;;;;1.77;1.02;;;;;;;;;;5045641;28;20044;-77
2021/03/24 05:16:45;;;;;;;2.05;0.90;;;;;;;;;;5016006;28;20044;-76
2021/03/24 05:19:21;;;;;;;2.17;1.03;;;;;;;;;;5021340;28;20042;-76
2021/03/24 05:21:49;;;;;;;1.90;1.00;;;;;;;;;;5021649;28;20395;-76
2021/03/24 05:24:14;;;;;;;2.03;1.10;;;;;;;;;;5033709;28;20033;-76
2021/03/24 05:26:48;;;;;;;2.60;1.00;;;;;;;;;;5001556;28;20034;-76
2021/03/24 05:29:18;;;;;;;2.13;1.00;;;;;;;;;;5003280;28;20026;-76
2021/03/24 05:31:45;;;;;;;2.05;1.15;;;;;;;;;;5004835;28;20033;-76
2021/03/24 05:34:17;;;;;;;1.98;1.00;;;;;;;;;;4989663;28;20037;-76
2021/03/24 05:36:44;;;;;;;2.05;1.10;;;;;;;;;;5021091;28;20377;-76
2021/03/24 05:39:49;;;;;;;1.88;1.00;;;;;;;;;;5021118;28;20033;-76
2021/03/24 05:42:35;;;;;;;2.15;1.10;;;;;;;;;;5028609;28;20036;-76
2021/03/24 05:45:09;;;;;;;2.13;1.00;;;;;;;;;;5019720;28;20037;-76
2021/03/24 05:47:36;;;;;;;2.15;1.02;;;;;;;;;;5000944;28;20037;-76
2021/03/24 05:50:22;;;;;;;2.30;0.80;;;;;;;;;;5033000;28;20041;-76
2021/03/24 05:53:07;;;;;;;1.35;0.95;;;;;;;;;;5023406;28;20045;-77
2021/03/24 05:55:52;;;;;;;1.63;0.93;;;;;;;;;;5001014;28;20044;-76
2021/03/24 05:58:31;;;;;;;1.98;0.93;;;;;;;;;;5029054;28;20075;-76
2021/03/24 06:01:13;;;;;;;1.75;1.10;;;;;;;;;;5038278;28;20025;-76
2021/03/24 06:03:52;;;;;;;2.05;1.00;;;;;;;;;;5007429;28;20092;-76
2021/03/24 06:06:45;;;;;;;3.67;1.10;;;;;;;;;;5007194;28;20055;-76
2021/03/24 06:09:13;;;;;;;2.08;1.00;;;;;;;;;;5041375;28;20467;-76
2021/03/24 06:12:05;;;;;;;2.25;1.10;;;;;;;;;;5034506;28;20041;-76
2021/03/24 06:15:08;;;;;;;2.50;1.05;;;;;;;;;;5027450;28;20032;-77
2021/03/24 06:18:05;;;;;;;1.92;1.10;;;;;;;;;;5016513;28;20444;-76
2021/03/24 06:20:48;;;;;;;1.70;1.10;;;;;;;;;;5016989;28;20084;-76
2021/03/24 06:23:23;;;;;;;2.40;1.30;;;;;;;;;;5031513;28;20044;-76
2021/03/24 06:26:04;;;;;;;2.08;1.10;;;;;;;;;;5052789;28;20495;-76
2021/03/24 06:28:44;;;;;;;2.03;1.05;;;;;;;;;;5040777;28;20033;-76
2021/03/24 06:31:28;;;;;;;1.65;1.00;;;;;;;;;;5020836;28;20115;-76
2021/03/24 06:33:56;;;;;;;2.20;1.20;;;;;;;;;;5052119;28;20058;-77
2021/03/24 06:36:47;;;;;;;2.15;0.98;;;;;;;;;;5036128;28;20037;-76
2021/03/24 06:39:40;;;;;;;2.40;1.20;;;;;;;;;;5031655;28;20036;-77
2021/03/24 06:42:13;;;;;;;1.98;1.00;;;;;;;;;;4999937;28;20041;-76
2021/03/24 06:44:59;;;;;;;2.58;1.27;;;;;;;;;;5020289;28;20033;-76
2021/03/24 06:47:53;;;;;;;2.45;1.27;;;;;;;;;;5016426;28;20025;-76
2021/03/24 06:50:46;;;;;;;2.47;1.30;;;;;;;;;;4999950;28;20510;-76
2021/03/24 06:53:30;;;;;;;1.92;1.08;;;;;;;;;;5016258;28;20040;-76
2021/03/24 06:56:20;;;;;;;2.22;1.25;;;;;;;;;;5020898;28;20037;-77
2021/03/24 06:59:00;;;;;;;2.13;1.20;;;;;;;;;;5031248;28;20522;-76
2021/03/24 07:01:55;;;;;;;2.72;1.23;;;;;;;;;;5049570;28;20120;-76
2021/03/24 07:04:39;;;;;;;1.55;0.95;;;;;;;;;;5018820;28;20033;-77
2021/03/24 07:07:04;;;;;;;2.10;1.00;;;;;;;;;;5044664;28;20064;-76
2021/03/24 07:09:52;;;;;;;2.50;1.00;;;;;;;;;;5029982;28;20056;-76
2021/03/24 07:12:42;;;;;;;2.60;1.23;;;;;;;;;;4996688;28;20045;-76
2021/03/24 07:15:30;;;;;;;2.25;1.13;;;;;;;;;;5043452;28;20056;-77
2021/03/24 07:18:00;;;;;;;;;;;;;;;;;;5036146;28;20112;-76
2021/03/24 07:20:57;;;;;;;2.42;1.30;;;;;;;;;;5035286;28;19921;-76
2021/03/24 07:23:34;;;;;;;1.92;1.20;;;;;;;;;;5043811;28;20041;-76
2021/03/24 07:26:06;;;;;;;2.38;1.20;;;;;;;;;;5052938;28;20135;-76
2021/03/24 07:28:49;;;;;;;2.03;1.23;;;;;;;;;;5018943;28;20036;-76
2021/03/24 07:31:35;;;;;;;2.25;1.17;;;;;;;;;;5033029;28;20040;-76
2021/03/24 07:34:15;;;;;;;3.20;1.08;;;;;;;;;;5042861;28;20102;-77
2021/03/24 07:36:58;;;;;;;2.67;1.25;;;;;;;;;;5035570;28;20039;-76
2021/03/24 07:39:53;;;;;;;2.92;1.30;;;;;;;;;;5053283;28;20033;-76
2021/03/24 07:42:47;;;;;;;2.75;1.20;;;;;;;;;;5003734;28;20385;-76
2021/03/24 07:45:33;;;;;;;1.95;1.23;;;;;;;;;;5020533;28;20055;-76
2021/03/24 07:48:23;;;;;;;2.38;1.08;;;;;;;;;;5002592;28;20037;-76
2021/03/24 07:51:21;;;;;;;3.80;1.17;;;;;;;;;;5020340;28;20100;-77
2021/03/24 07:54:08;;;;;;;2.53;1.25;;;;;;;;;;5037857;28;20033;-76
2021/03/24 07:56:45;;;;;;;2.60;1.30;;;;;;;;;;5019465;28;20028;-77
2021/03/24 07:59:17;;;;;;;3.08;1.35;;;;;;;;;;5002924;28;20442;-77
2021/03/24 08:02:05;;;;;;;3.53;1.40;;;;;;;;;;5035163;28;20047;-76
2021/03/24 08:04:52;;;;;;;3.45;1.30;;;;;;;;;;5008289;28;20025;-77
2021/03/24 08:07:34;;;;;;;3.10;1.23;;;;;;;;;;5032979;28;20033;-76
2021/03/24 08:10:16;;;;;;;3.53;1.30;;;;;;;;;;5015269;28;20113;-77
2021/03/24 08:13:15;;;;;;;4.45;1.30;;;;;;;;;;5015345;28;20104;-76
2021/03/24 08:15:40;;;;;;;3.38;1.10;;;;;;;;;;5017860;28;20120;-77
2021/03/24 08:18:25;;;;;;;3.77;1.50;;;;;;;;;;5032738;28;20128;-76
2021/03/24 08:20:53;;;;;;;2.97;1.23;;;;;;;;;;4999510;28;20048;-77
2021/03/24 08:23:32;;;;;;;3.28;1.40;;;;;;;;;;4998758;28;20124;-77
2021/03/24 08:26:15;;;;;;;3.63;1.50;;;;;;;;;;5015230;28;20512;-77
2021/03/24 08:28:53;;;;;;;2.20;1.23;;;;;;;;;;5015012;28;20482;-77
2021/03/24 08:31:56;;;;;;;3.15;1.50;;;;;;;;;;4999004;28;20064;-76
2021/03/24 08:34:39;;;;;;;2.25;1.20;;;;;;;;;;5046945;28;20428;-76
2021/03/24 08:37:16;;;;;;;3.70;1.33;;;;;;;;;;5052798;28;20033;-77
2021/03/24 08:39:51;;;;;;;2.83;1.40;;;;;;;;;;5037928;28;20040;-76
2021/03/24 08:42:21;;;;;;;4.18;1.42;;;;;;;;;;5039367;28;20527;-76
2021/03/24 08:44:51;;;;;;;2.53;1.27;;;;;;;;;;5038640;28;20036;-76
2021/03/24 08:47:25;;;;;;;2.97;1.30;;;;;;;;;;5038323;28;20075;-77
2021/03/24 08:49:54;;;;;;;3.35;1.50;;;;;;;;;;5022612;28;20535;-76
2021/03/24 08:52:46;;;;;;;3.28;1.40;;;;;;;;;;5005417;28;20044;-76
2021/03/24 08:55:28;;;;;;;3.08;1.50;;;;;;;;;;5024127;28;20373;-76
2021/03/24 08:58:35;;;;;;;3.60;1.50;;;;;;;;;;5038204;28;20033;-75
2021/03/24 09:01:38;;;;;;;2.63;1.20;;;;;;;;;;5020052;28;20115;-76
2021/03/24 09:04:12;;;;;;;3.10;1.30;;;;;;;;;;5050201;28;20037;-77
2021/03/24 09:06:40;;;;;;;2.80;1.38;;;;;;;;;;5055958;28;20044;-76
2021/03/24 09:09:37;;;;;;;2.33;1.17;;;;;;;;;;5055716;28;20483;-76
2021/03/24 09:12:21;;;;;;;2.53;1.20;;;;;;;;;;5037815;28;20029;-76
2021/03/24 09:15:16;;;;;;;2.97;1.20;;;;;;;;;;5055838;28;20033;-76
2021/03/24 09:18:08;;;;;;;3.42;1.45;;;;;;;;;;5037521;28;20044;-76
2021/03/24 09:20:49;;;;;;;3.00;1.50;;;;;;;;;;5039420;28;20488;-76
2021/03/24 09:23:40;;;;;;;4.35;1.40;;;;;;;;;;5038860;28;20033;-76
2021/03/24 09:26:53;;;;;;;3.33;1.42;;;;;;;;;;5018872;28;20053;-76
2021/03/24 09:29:41;;;;;;;3.03;1.20;;;;;;;;;;5050462;28;20107;-76
2021/03/24 09:32:28;;;;;;;3.33;1.30;;;;;;;;;;5054010;28;20029;-76
2021/03/24 09:35:12;;;;;;;2.90;1.43;;;;;;;;;;5051615;28;20488;-76
2021/03/24 09:38:00;;;;;;;2.72;1.20;;;;;;;;;;5023118;28;20637;-76
2021/03/24 09:40:34;;;;;;;3.33;1.42;;;;;;;;;;5008571;28;20045;-76
2021/03/24 09:43:00;;;;;;;3.53;1.63;;;;;;;;;;5017469;28;20034;-76
2021/03/24 09:45:31;;;;;;;3.08;1.30;;;;;;;;;;5002811;28;20033;-76
2021/03/24 09:48:07;;;;;;;3.50;1.50;;;;;;;;;;5016029;28;20052;-76
2021/03/24 09:50:35;;;;;;;3.42;1.40;;;;;;;;;;5044364;28;20546;-76
2021/03/24 09:53:14;;;;;;;3.08;1.45;;;;;;;;;;5054678;28;20049;-76
2021/03/24 09:55:58;;;;;;;3.65;1.40;;;;;;;;;;5005665;28;20052;-76
2021/03/24 09:58:32;;;;;;;3.85;1.65;;;;;;;;;;5005530;28;20131;-77
2021/03/24 10:01:05;;;;;;;4.18;1.73;;;;;;;;;;5054265;28;20037;-76
2021/03/24 10:03:49;;;;;;;2.92;1.40;;;;;;;;;;5008492;28;20043;-76
2021/03/24 10:06:39;;;;;;;3.72;1.50;;;;;;;;;;5034796;28;20041;-76
2021/03/24 10:09:25;;;;;;;2.47;1.30;;;;;;;;;;5029241;28;20056;-76
2021/03/24 10:12:28;;;;;;;3.55;1.50;;;;;;;;;;5049081;28;20124;-76
2021/03/24 10:15:05;;;;;;;3.10;1.48;;;;;;;;;;5040256;28;20403;-76
2021/03/24 10:17:52;;;;;;;3.65;1.40;;;;;;;;;;5037113;28;20036;-76
2021/03/24 10:20:23;;;;;;;3.60;1.40;;;;;;;;;;5035676;28;20033;-75
2021/03/24 10:22:50;;;;;;;4.22;1.60;;;;;;;;;;5003888;28;20052;-76
2021/03/24 10:25:38;;;;;;;3.22;1.42;;;;;;;;;;5019323;28;20040;-77
2021/03/24 10:28:35;;;;;;;4.70;1.33;;;;;;;;;;5025064;28;20036;-76
2021/03/24 10:31:03;;;;;;;3.45;1.50;;;;;;;;;;5007166;28;20043;-76
2021/03/24 10:33:36;;;;;;;2.28;1.25;;;;;;;;;;5002785;28;20044;-77
2021/03/24 10:36:04;;;;;;;3.75;1.60;;;;;;;;;;5052564;28;20041;-77
2021/03/24 10:38:39;;;;;;;3.50;1.30;;;;;;;;;;5053483;28;20079;-77
2021/03/24 10:41:17;;;;;;;4.05;1.40;;;;;;;;;;4990224;28;20029;-77
2021/03/24 10:43:45;;;;;;;4.93;1.60;;;;;;;;;;5022403;28;20503;-77
2021/03/24 10:46:26;;;;;;;2.78;1.42;;;;;;;;;;5002226;28;20059;-77
2021/03/24 10:48:56;;;;;;;4.18;1.60;;;;;;;;;;5019131;28;20029;-76
2021/03/24 10:51:55;;;;;;;4.82;1.60;;;;;;;;;;5019637;28;20084;-76
2021/03/24 10:54:23;;;;;;;3.72;1.52;;;;;;;;;;5038295;28;20037;-76
2021/03/24 10:56:54;;;;;;;2.97;1.55;;;;;;;;;;5019858;28;20037;-76
2021/03/24 10:59:38;;;;;;;3.63;1.42;;;;;;;;;;5038886;28;20037;-76
2021/03/24 11:02:20;;;;;;;3.58;1.55;;;;;;;;;;5000703;28;20116;-76
2021/03/24 11:05:04;;;;;;;3.38;1.58;;;;;;;;;;5017893;28;20039;-76
2021/03/24 11:07:49;;;;;;;3.50;1.50;;;;;;;;;;5050055;28;20049;-76
2021/03/24 11:10:42;;;;;;;3.22;1.50;;;;;;;;;;5034881;28;20029;-76
2021/03/24 11:13:28;;;;;;;3.10;1.38;;;;;;;;;;5027376;28;20307;-76
2021/03/24 11:15:56;;;;;;;2.92;1.40;;;;;;;;;;5034247;28;20120;-76
2021/03/24 11:18:29;;;;;;;4.20;1.70;;;;;;;;;;5034643;28;20092;-76
2021/03/24 11:21:00;;;;;;;3.30;1.50;;;;;;;;;;4999989;28;20041;-75
2021/03/24 11:23:35;;;;;;;3.38;1.50;;;;;;;;;;5030582;23;20056;-76
2021/03/24 11:26:18;;;;;;;2.90;1.35;;;;;;;;;;5020997;28;20037;-76
2021/03/24 11:28:43;;;;;;;3.05;1.55;;;;;;;;;;4995960;28;20030;-76
2021/03/24 11:31:15;;;;;;;3.80;1.33;;;;;;;;;;4996416;28;20057;-75
2021/03/24 11:33:46;;;;;;;3.30;1.60;;;;;;;;;;4995877;28;20492;-75
2021/03/24 11:36:25;;;;;;;3.67;1.60;;;;;;;;;;4982042;28;20459;-76
2021/03/24 11:38:57;;;;;;;3.22;1.50;;;;;;;;;;5026238;28;20415;-75
2021/03/24 11:41:24;;;;;;;3.78;1.48;;;;;;;;;;5013648;28;20063;-76
2021/03/24 11:43:56;;;;;;;4.43;1.67;;;;;;;;;;4995915;28;20033;-75
2021/03/24 11:46:28;;;;;;;4.43;1.63;;;;;;;;;;5013273;28;20042;-75
2021/03/24 11:49:06;;;;;;;3.08;1.38;;;;;;;;;;5030455;28;20052;-75
2021/03/24 11:51:47;;;;;;;3.58;1.58;;;;;;;;;;5005293;28;20101;-75
2021/03/24 11:54:40;;;;;;;3.38;1.40;;;;;;;;;;5012599;28;20116;-75
2021/03/24 11:57:23;;;;;;;4.13;1.70;;;;;;;;;;5031672;28;20465;-75
2021/03/24 12:00:09;;;;;;;3.67;1.63;;;;;;;;;;5031738;28;20034;-75
2021/03/24 12:03:12;;;;;;;4.03;1.70;;;;;;;;;;5005179;28;20489;-75
2021/03/24 12:05:43;;;;;;;3.85;1.63;;;;;;;;;;5013174;28;20060;-75
2021/03/24 12:08:21;;;;;;;4.78;1.60;;;;;;;;;;4995615;28;20128;-75
2021/03/24 12:11:12;;;;;;;3.85;1.65;;;;;;;;;;4995901;28;20400;-76
2021/03/24 12:13:38;;;;;;;4.10;1.40;;;;;;;;;;4997162;28;20137;-75
2021/03/24 12:16:13;;;;;;;3.97;1.53;;;;;;;;;;4999569;28;20139;-75
2021/03/24 12:18:39;;;;;;;5.25;1.50;;;;;;;;;;4999296;28;20080;-75
2021/03/24 12:21:05;;;;;;;3.53;1.70;;;;;;;;;;5015855;28;20079;-75
2021/03/24 12:23:32;;;;;;;3.67;1.50;;;;;;;;;;4983061;28;20046;-75
2021/03/24 12:25:58;;;;;;;5.10;1.70;;;;;;;;;;4982943;28;20473;-75
2021/03/24 12:28:30;;;;;;;3.93;1.60;;;;;;;;;;5015694;28;20037;-75
2021/03/24 12:31:07;;;;;;;4.50;1.60;;;;;;;;;;4999266;28;20265;-76
2021/03/24 12:33:33;;;;;;;3.88;1.60;;;;;;;;;;4999637;28;20406;-75
2021/03/24 12:36:09;;;;;;;3.23;1.30;;;;;;;;;;4982891;28;20026;-75
2021/03/24 12:38:47;;;;;;;3.73;1.43;;;;;;;;;;5015376;28;20084;-75
2021/03/24 12:41:12;;;;;;;3.53;1.40;;;;;;;;;;4999141;28;20397;-75
2021/03/24 12:43:39;;;;;;;3.83;1.60;;;;;;;;;;4999154;28;20033;-75
2021/03/24 12:46:06;;;;;;;3.72;1.50;;;;;;;;;;4982779;28;20029;-75
2021/03/24 12:48:34;;;;;;;4.10;1.60;;;;;;;;;;4998823;28;20550;-75
2021/03/24 12:51:10;;;;;;;4.35;1.50;;;;;;;;;;4982728;28;20064;-75
2021/03/24 12:53:42;;;;;;;3.67;1.50;;;;;;;;;;4999050;28;20045;-75
2021/03/24 12:56:39;;;;;;;3.42;1.70;;;;;;;;;;5015144;28;20555;-75
2021/03/24 12:59:30;;;;;;;3.55;1.45;;;;;;;;;;4999110;28;20049;-75
2021/03/24 13:02:29;;;;;;;3.67;1.33;;;;;;;;;;5015158;28;20560;-75
2021/03/24 13:05:15;;;;;;;3.22;1.40;;;;;;;;;;5016224;28;20065;-75
2021/03/24 13:08:24;;;;;;;4.07;1.70;;;;;;;;;;5015218;28;20037;-74
2021/03/24 13:10:51;;;;;;;5.15;1.50;;;;;;;;;;4929686;28;20060;-75
2021/03/24 13:13:48;;;;;;;4.65;1.58;;;;;;;;;;4998434;28;20053;-75
2021/03/24 13:16:22;;;;;;;3.35;1.40;;;;;;;;;;4980553;28;20040;-75
2021/03/24 13:19:00;;;;;;;3.72;1.42;;;;;;;;;;4998528;28;20030;-75
2021/03/24 13:21:29;;;;;;;4.35;1.75;;;;;;;;;;4998406;28;20132;-75
2021/03/24 13:24:03;;;;;;;2.63;1.30;;;;;;;;;;5015681;28;20057;-75
2021/03/24 13:26:38;;;;;;;3.80;1.40;;;;;;;;;;5001447;28;20026;-75
2021/03/24 13:29:29;;;;;;;3.17;1.50;;;;;;;;;;5008463;28;20045;-76
2021/03/24 13:32:17;;;;;;;3.53;1.38;;;;;;;;;;5016019;28;20108;-75
2021/03/24 13:35:01;;;;;;;2.95;1.40;;;;;;;;;;5002649;28;20045;-75
2021/03/24 13:37:27;;;;;;;3.05;1.40;;;;;;;;;;5014414;28;20041;-75
2021/03/24 13:39:53;;;;;;;3.63;1.60;;;;;;;;;;4997890;28;20034;-75
2021/03/24 13:42:40;;;;;;;3.65;1.40;;;;;;;;;;5012544;28;20034;-75
2021/03/24 13:45:08;;;;;;;3.28;1.55;;;;;;;;;;4998263;28;20033;-76
2021/03/24 13:47:39;;;;;;;2.90;1.48;;;;;;;;;;4998099;28;20042;-75
2021/03/24 13:50:17;;;;;;;3.08;1.48;;;;;;;;;;4998467;28;20049;-76
2021/03/24 13:52:53;;;;;;;3.15;1.60;;;;;;;;;;5017210;28;20036;-75
2021/03/24 13:55:49;;;;;;;3.08;1.50;;;;;;;;;;5033853;28;20073;-76
2021/03/24 13:58:45;;;;;;;3.88;1.65;;;;;;;;;;5018895;28;20041;-76
2021/03/24 14:01:48;;;;;;;4.28;1.60;;;;;;;;;;5019691;28;20076;-75
2021/03/24 14:04:34;;;;;;;4.93;1.58;;;;;;;;;;5014997;28;20041;-75
2021/03/24 14:07:18;;;;;;;3.60;1.50;;;;;;;;;;5019744;28;20038;-75
2021/03/24 14:09:46;;;;;;;3.20;1.55;;;;;;;;;;5034302;28;20227;-76
2021/03/24 14:12:17;;;;;;;3.67;1.52;;;;;;;;;;5015556;28;20033;-76
2021/03/24 14:15:01;;;;;;;4.05;1.50;;;;;;;;;;5033497;28;20442;-75
2021/03/24 14:17:47;;;;;;;3.38;1.52;;;;;;;;;;5034675;28;20036;-75
2021/03/24 14:20:47;;;;;;;5.15;1.70;;;;;;;;;;5033324;28;20038;-75
2021/03/24 14:23:43;;;;;;;3.83;1.63;;;;;;;;;;5033581;28;20099;-76
2021/03/24 14:26:15;;;;;;;2.58;1.38;;;;;;;;;;5006919;28;20381;-76
2021/03/24 14:28:51;;;;;;;2.47;1.45;;;;;;;;;;5034764;28;20396;-75
2021/03/24 14:31:30;;;;;;;5.47;1.80;;;;;;;;;;5016577;28;20057;-75
2021/03/24 14:34:20;;;;;;;3.33;1.60;;;;;;;;;;5033280;28;20033;-75
2021/03/24 14:36:48;;;;;;;3.83;1.98;;;;;;;;;;5000104;28;20033;-76
2021/03/24 14:39:34;;;;;;;2.95;1.33;;;;;;;;;;5016400;28;20033;-75
2021/03/24 14:42:09;;;;;;;2.83;1.38;;;;;;;;;;5016375;28;20037;-75
2021/03/24 14:45:12;;;;;;;3.45;1.60;;;;;;;;;;5034011;28;20037;-76
2021/03/24 14:47:56;;;;;;;3.13;1.60;;;;;;;;;;5032966;28;20032;-76
2021/03/24 14:51:04;;;;;;;3.00;1.48;;;;;;;;;;5034116;28;20100;-75
2021/03/24 14:53:31;;;;;;;3.53;1.65;;;;;;;;;;5008836;28;20396;-76
2021/03/24 14:56:07;;;;;;;2.55;1.40;;;;;;;;;;5016239;28;20088;-76
2021/03/24 14:58:33;;;;;;;2.95;1.40;;;;;;;;;;5032540;28;20053;-76
2021/03/24 15:01:32;;;;;;;3.43;1.50;;;;;;;;;;5033751;28;20115;-76
2021/03/24 15:04:17;;;;;;;3.58;1.42;;;;;;;;;;5015983;28;20030;-76
2021/03/24 15:06:44;;;;;;;2.65;1.40;;;;;;;;;;5015936;28;20064;-76
2021/03/24 15:09:16;;;;;;;2.85;1.38;;;;;;;;;;5032544;28;20121;-76
2021/03/24 15:11:49;;;;;;;3.42;1.70;;;;;;;;;;5032558;28;20038;-75
2021/03/24 15:14:47;;;;;;;2.58;1.30;;;;;;;;;;5016022;28;20029;-76
2021/03/24 15:17:43;;;;;;;3.20;1.42;;;;;;;;;;5015810;28;20025;-76
2021/03/24 15:20:20;;;;;;;2.50;1.40;;;;;;;;;;5032514;28;20029;-76
2021/03/24 15:23:04;;;;;;;;;;;;;;;;;;5032748;28;20038;-76
2021/03/24 15:25:40;;;;;;;3.60;1.42;;;;;;;;;;5015746;28;19917;-76
2021/03/24 15:28:09;;;;;;;2.45;1.30;;;;;;;;;;5015619;28;20125;-75
2021/03/24 15:30:48;;;;;;;3.17;1.52;;;;;;;;;;5033284;28;20044;-75
2021/03/24 15:33:47;;;;;;;2.60;1.10;;;;;;;;;;5015591;28;20116;-76
2021/03/24 15:36:18;;;;;;;3.35;1.48;;;;;;;;;;4999186;28;20033;-75
2021/03/24 15:38:45;;;;;;;2.97;1.50;;;;;;;;;;5033132;28;20159;-76
2021/03/24 15:41:21;;;;;;;;;;;;;;;;;;5032395;28;20026;-76